sensor_id;sensor_type;location;lat;lon;timestamp;pressure;altitude;pressure_sealevel;temperature;humidity
36304;BME280;22335;49.800;8.596;2023-04-25T00:00:35;99883.44;;;14.74;55.49
36304;BME280;22335;49.800;8.596;2023-04-25T00:07:19;99878.78;;;14.66;55.78
36304;BME280;22335;49.800;8.596;2023-04-25T00:14:02;99884.91;;;14.45;56.23
36304;BME280;22335;49.800;8.596;2023-04-25T00:20:47;99839.44;;;13.96;56.68
36304;BME280;22335;49.800;8.596;2023-04-25T00:27:31;99883.28;;;14.10;56.82
36304;BME280;22335;49.800;8.596;2023-04-25T00:34:15;99885.72;;;14.20;57.28
36304;BME280;22335;49.800;8.596;2023-04-25T00:41:00;99875.53;;;14.29;57.36
36304;BME280;22335;49.800;8.596;2023-04-25T00:47:44;99877.00;;;14.35;56.87
36304;BME280;22335;49.800;8.596;2023-04-25T00:54:29;99865.81;;;14.14;57.23
36304;BME280;22335;49.800;8.596;2023-04-25T01:01:14;99872.59;;;13.99;58.03
36304;BME280;22335;49.800;8.596;2023-04-25T01:07:58;99878.59;;;14.10;57.54
36304;BME280;22335;49.800;8.596;2023-04-25T01:14:43;99883.13;;;14.23;57.41
36304;BME280;22335;49.800;8.596;2023-04-25T01:21:28;99842.34;;;13.99;57.80
36304;BME280;22335;49.800;8.596;2023-04-25T01:28:12;99859.03;;;13.94;58.20
36304;BME280;22335;49.800;8.596;2023-04-25T01:34:56;99826.94;;;13.55;58.57
36304;BME280;22335;49.800;8.596;2023-04-25T01:41:42;99871.78;;;13.90;58.68
36304;BME280;22335;49.800;8.596;2023-04-25T01:48:25;99878.09;;;13.91;58.50
36304;BME280;22335;49.800;8.596;2023-04-25T01:55:09;99873.44;;;14.00;58.58
36304;BME280;22335;49.800;8.596;2023-04-25T02:02:04;99841.53;;;13.90;58.29
36304;BME280;22335;49.800;8.596;2023-04-25T02:08:51;99875.03;;;14.27;58.41
36304;BME280;22335;49.800;8.596;2023-04-25T02:15:34;99867.13;;;14.34;57.92
36304;BME280;22335;49.800;8.596;2023-04-25T02:22:30;99854.97;;;14.18;58.32
36304;BME280;22335;49.800;8.596;2023-04-25T02:29:15;99853.53;;;13.94;58.88
36304;BME280;22335;49.800;8.596;2023-04-25T02:35:59;99800.72;;;13.40;58.39
36304;BME280;22335;49.800;8.596;2023-04-25T02:42:44;99856.53;;;13.67;59.09
36304;BME280;22335;49.800;8.596;2023-04-25T03:05:46;99855.19;;;13.38;59.64
36304;BME280;22335;49.800;8.596;2023-04-25T03:12:33;99854.53;;;13.41;59.80
36304;BME280;22335;49.800;8.596;2023-04-25T03:19:17;99849.88;;;13.50;59.41
36304;BME280;22335;49.800;8.596;2023-04-25T03:26:03;99860.44;;;13.74;59.80
36304;BME280;22335;49.800;8.596;2023-04-25T03:32:46;99863.06;;;14.05;58.81
36304;BME280;22335;49.800;8.596;2023-04-25T03:39:31;99866.81;;;14.10;58.77
36304;BME280;22335;49.800;8.596;2023-04-25T03:46:16;99860.16;;;14.02;58.94
36304;BME280;22335;49.800;8.596;2023-04-25T03:53:01;99775.03;;;13.45;58.75
36304;BME280;22335;49.800;8.596;2023-04-25T04:00:01;99865.16;;;14.17;58.83
36304;BME280;22335;49.800;8.596;2023-04-25T04:06:55;99869.53;;;14.36;58.41
36304;BME280;22335;49.800;8.596;2023-04-25T04:13:41;99884.44;;;14.43;58.11
36304;BME280;22335;49.800;8.596;2023-04-25T04:20:25;99880.72;;;14.57;57.75
36304;BME280;22335;49.800;8.596;2023-04-25T04:27:10;99883.47;;;14.65;57.67
36304;BME280;22335;49.800;8.596;2023-04-25T04:34:20;99888.47;;;14.72;57.30
36304;BME280;22335;49.800;8.596;2023-04-25T04:41:07;99889.56;;;14.88;56.88
36304;BME280;22335;49.800;8.596;2023-04-25T04:48:16;99898.19;;;14.78;57.03
36304;BME280;22335;49.800;8.596;2023-04-25T04:55:24;99908.84;;;14.88;57.01
36304;BME280;22335;49.800;8.596;2023-04-25T05:02:22;99912.41;;;14.97;56.76
36304;BME280;22335;49.800;8.596;2023-04-25T05:09:17;99909.00;;;14.92;56.76
36304;BME280;22335;49.800;8.596;2023-04-25T05:16:18;99927.34;;;14.79;57.25
36304;BME280;22335;49.800;8.596;2023-04-25T05:23:06;99941.13;;;14.62;56.53
36304;BME280;22335;49.800;8.596;2023-04-25T05:30:15;99927.16;;;14.32;56.05
36304;BME280;22335;49.800;8.596;2023-04-25T05:37:12;99944.44;;;14.24;55.51
36304;BME280;22335;49.800;8.596;2023-04-25T05:44:06;99956.19;;;13.90;55.10
36304;BME280;22335;49.800;8.596;2023-04-25T05:50:58;99961.75;;;13.58;55.44
36304;BME280;22335;49.800;8.596;2023-04-25T05:58:14;99976.78;;;13.30;54.90
36304;BME280;22335;49.800;8.596;2023-04-25T06:04:57;99971.13;;;13.04;54.95
36304;BME280;22335;49.800;8.596;2023-04-25T06:11:43;99972.97;;;13.17;54.13
36304;BME280;22335;49.800;8.596;2023-04-25T06:18:27;99930.19;;;12.93;54.26
36304;BME280;22335;49.800;8.596;2023-04-25T06:25:10;99990.13;;;13.23;53.67
36304;BME280;22335;49.800;8.596;2023-04-25T06:31:55;99981.69;;;13.19;53.72
36304;BME280;22335;49.800;8.596;2023-04-25T06:38:39;99986.88;;;13.21;53.77
36304;BME280;22335;49.800;8.596;2023-04-25T06:45:23;99981.50;;;13.15;53.65
36304;BME280;22335;49.800;8.596;2023-04-25T06:52:09;99988.19;;;13.23;53.18
36304;BME280;22335;49.800;8.596;2023-04-25T06:58:53;99991.66;;;13.29;52.73
36304;BME280;22335;49.800;8.596;2023-04-25T07:05:49;99996.81;;;13.30;52.84
36304;BME280;22335;49.800;8.596;2023-04-25T07:12:34;99994.75;;;13.36;52.62
36304;BME280;22335;49.800;8.596;2023-04-25T07:19:17;100003.91;;;13.54;52.23
36304;BME280;22335;49.800;8.596;2023-04-25T07:26:01;99975.63;;;13.53;51.97
36304;BME280;22335;49.800;8.596;2023-04-25T07:32:46;100002.66;;;13.69;51.64
36304;BME280;22335;49.800;8.596;2023-04-25T07:39:30;100022.47;;;13.79;51.66
36304;BME280;22335;49.800;8.596;2023-04-25T07:46:14;100028.13;;;13.83;51.42
36304;BME280;22335;49.800;8.596;2023-04-25T07:53:00;100019.75;;;13.88;50.91
36304;BME280;22335;49.800;8.596;2023-04-25T07:59:50;100041.47;;;13.98;51.21
36304;BME280;22335;49.800;8.596;2023-04-25T08:06:35;100048.44;;;14.04;50.90
36304;BME280;22335;49.800;8.596;2023-04-25T08:13:24;100054.28;;;14.12;51.13
36304;BME280;22335;49.800;8.596;2023-04-25T08:20:09;100065.25;;;14.03;50.90
36304;BME280;22335;49.800;8.596;2023-04-25T08:26:54;100070.13;;;14.06;50.20
36304;BME280;22335;49.800;8.596;2023-04-25T08:33:41;100057.19;;;14.15;50.65
36304;BME280;22335;49.800;8.596;2023-04-25T08:40:51;100036.88;;;14.25;50.65
36304;BME280;22335;49.800;8.596;2023-04-25T08:47:37;100079.53;;;14.71;49.07
36304;BME280;22335;49.800;8.596;2023-04-25T08:54:23;100080.22;;;14.85;48.61
36304;BME280;22335;49.800;8.596;2023-04-25T09:01:12;100097.25;;;14.87;48.89
36304;BME280;22335;49.800;8.596;2023-04-25T09:08:02;100104.69;;;15.13;47.70
36304;BME280;22335;49.800;8.596;2023-04-25T09:15:03;100097.22;;;15.05;47.22
36304;BME280;22335;49.800;8.596;2023-04-25T09:22:13;100112.63;;;15.32;47.30
36304;BME280;22335;49.800;8.596;2023-04-25T09:29:05;100111.50;;;15.24;46.81
36304;BME280;22335;49.800;8.596;2023-04-25T09:36:01;100122.53;;;15.24;47.04
36304;BME280;22335;49.800;8.596;2023-04-25T09:43:18;100132.06;;;15.27;46.74
36304;BME280;22335;49.800;8.596;2023-04-25T09:50:13;100136.97;;;15.21;46.37
36304;BME280;22335;49.800;8.596;2023-04-25T09:57:09;100143.59;;;15.20;46.08
36304;BME280;22335;49.800;8.596;2023-04-25T10:03:55;100155.75;;;15.36;45.86
36304;BME280;22335;49.800;8.596;2023-04-25T10:11:01;100129.81;;;15.03;45.64
36304;BME280;22335;49.800;8.596;2023-04-25T10:17:47;100170.31;;;15.19;46.10
36304;BME280;22335;49.800;8.596;2023-04-25T10:24:31;100165.63;;;15.11;45.81
36304;BME280;22335;49.800;8.596;2023-04-25T10:31:16;100185.91;;;15.24;45.35
36304;BME280;22335;49.800;8.596;2023-04-25T10:38:03;100176.00;;;15.14;44.56
36304;BME280;22335;49.800;8.596;2023-04-25T10:45:01;100187.50;;;15.16;44.99
36304;BME280;22335;49.800;8.596;2023-04-25T10:51:45;100200.63;;;15.11;44.91
36304;BME280;22335;49.800;8.596;2023-04-25T10:58:41;100197.84;;;15.11;44.91
36304;BME280;22335;49.800;8.596;2023-04-25T11:05:30;100199.84;;;15.28;44.48
36304;BME280;22335;49.800;8.596;2023-04-25T11:12:17;100216.56;;;15.40;44.51
36304;BME280;22335;49.800;8.596;2023-04-25T11:19:01;100165.47;;;15.25;44.50
36304;BME280;22335;49.800;8.596;2023-04-25T11:25:45;100214.94;;;15.56;44.44
36304;BME280;22335;49.800;8.596;2023-04-25T11:32:29;100220.78;;;15.55;44.32
36304;BME280;22335;49.800;8.596;2023-04-25T11:39:14;100175.06;;;15.36;43.95
36304;BME280;22335;49.800;8.596;2023-04-25T11:45:57;100220.44;;;15.65;43.87
36304;BME280;22335;49.800;8.596;2023-04-25T11:52:42;100177.63;;;15.50;43.60
36304;BME280;22335;49.800;8.596;2023-04-25T11:59:28;100180.41;;;15.59;43.70
36304;BME280;22335;49.800;8.596;2023-04-25T12:06:16;100227.94;;;15.90;43.39
36304;BME280;22335;49.800;8.596;2023-04-25T12:13:00;100237.50;;;16.10;43.22
36304;BME280;22335;49.800;8.596;2023-04-25T12:20:06;100228.06;;;16.20;42.67
36304;BME280;22335;49.800;8.596;2023-04-25T12:26:52;100232.09;;;16.23;42.41
36304;BME280;22335;49.800;8.596;2023-04-25T12:33:38;100215.44;;;16.02;42.13
36304;BME280;22335;49.800;8.596;2023-04-25T12:40:25;100241.56;;;16.04;42.43
36304;BME280;22335;49.800;8.596;2023-04-25T12:47:08;100241.56;;;15.96;42.39
36304;BME280;22335;49.800;8.596;2023-04-25T12:53:52;100260.22;;;16.07;42.28
36304;BME280;22335;49.800;8.596;2023-04-25T13:00:37;100254.34;;;16.09;42.17
36304;BME280;22335;49.800;8.596;2023-04-25T13:07:20;100263.78;;;16.08;42.08
36304;BME280;22335;49.800;8.596;2023-04-25T13:14:04;100218.84;;;15.81;41.37
36304;BME280;22335;49.800;8.596;2023-04-25T13:20:49;100261.03;;;16.08;41.08
36304;BME280;22335;49.800;8.596;2023-04-25T13:27:33;100265.56;;;16.04;41.00
36304;BME280;22335;49.800;8.596;2023-04-25T13:34:18;100268.16;;;16.09;40.79
36304;BME280;22335;49.800;8.596;2023-04-25T13:41:03;100259.38;;;16.07;40.58
36304;BME280;22335;49.800;8.596;2023-04-25T13:47:48;100274.81;;;16.17;40.37
36304;BME280;22335;49.800;8.596;2023-04-25T13:54:32;100270.56;;;16.19;40.23
36304;BME280;22335;49.800;8.596;2023-04-25T14:01:18;100271.56;;;16.23;39.65
36304;BME280;22335;49.800;8.596;2023-04-25T14:08:02;100241.06;;;15.94;40.33
36304;BME280;22335;49.800;8.596;2023-04-25T14:14:48;100290.22;;;16.18;40.17
36304;BME280;22335;49.800;8.596;2023-04-25T14:21:33;100296.69;;;16.22;39.79
36304;BME280;22335;49.800;8.596;2023-04-25T14:28:16;100301.41;;;16.21;39.44
36304;BME280;22335;49.800;8.596;2023-04-25T14:35:01;100308.22;;;16.24;39.19
36304;BME280;22335;49.800;8.596;2023-04-25T14:41:46;100268.16;;;16.00;38.90
36304;BME280;22335;49.800;8.596;2023-04-25T14:48:29;100309.53;;;16.26;39.01
36304;BME280;22335;49.800;8.596;2023-04-25T14:55:13;100305.59;;;16.45;38.75
36304;BME280;22335;49.800;8.596;2023-04-25T15:01:57;100301.56;;;16.42;38.46
36304;BME280;22335;49.800;8.596;2023-04-25T15:08:41;100313.41;;;16.43;38.34
36304;BME280;22335;49.800;8.596;2023-04-25T15:15:24;100310.28;;;16.44;37.95
36304;BME280;22335;49.800;8.596;2023-04-25T15:22:09;100297.16;;;16.41;37.70
36304;BME280;22335;49.800;8.596;2023-04-25T15:28:52;100302.66;;;16.41;37.74
36304;BME280;22335;49.800;8.596;2023-04-25T15:35:36;100318.63;;;16.35;37.69
36304;BME280;22335;49.800;8.596;2023-04-25T15:42:21;100252.25;;;15.88;37.41
36304;BME280;22335;49.800;8.596;2023-04-25T15:49:05;100328.03;;;16.17;37.45
36304;BME280;22335;49.800;8.596;2023-04-25T15:55:48;100331.94;;;16.25;37.15
36304;BME280;22335;49.800;8.596;2023-04-25T16:02:33;100325.28;;;16.08;37.83
36304;BME280;22335;49.800;8.596;2023-04-25T16:09:17;100331.78;;;16.21;37.14
36304;BME280;22335;49.800;8.596;2023-04-25T16:16:00;100340.22;;;15.99;37.09
36304;BME280;22335;49.800;8.596;2023-04-25T16:22:45;100337.13;;;16.00;37.32
36304;BME280;22335;49.800;8.596;2023-04-25T16:29:28;100344.44;;;16.13;37.18
36304;BME280;22335;49.800;8.596;2023-04-25T16:36:12;100349.63;;;16.15;37.07
36304;BME280;22335;49.800;8.596;2023-04-25T16:42:58;100352.38;;;16.15;36.79
36304;BME280;22335;49.800;8.596;2023-04-25T16:49:42;100345.25;;;16.05;36.73
36304;BME280;22335;49.800;8.596;2023-04-25T16:56:26;100348.16;;;16.18;36.70
36304;BME280;22335;49.800;8.596;2023-04-25T17:03:10;100357.91;;;16.32;36.62
36304;BME280;22335;49.800;8.596;2023-04-25T17:09:54;100228.84;;;15.25;36.30
36304;BME280;22335;49.800;8.596;2023-04-25T17:16:38;100360.81;;;16.10;36.46
36304;BME280;22335;49.800;8.596;2023-04-25T17:23:23;100362.94;;;16.22;36.37
36304;BME280;22335;49.800;8.596;2023-04-25T17:30:07;100367.50;;;16.26;36.18
36304;BME280;22335;49.800;8.596;2023-04-25T17:36:51;100393.13;;;16.27;36.31
36304;BME280;22335;49.800;8.596;2023-04-25T17:43:36;100377.88;;;16.29;36.06
36304;BME280;22335;49.800;8.596;2023-04-25T17:50:19;100394.59;;;16.24;35.81
36304;BME280;22335;49.800;8.596;2023-04-25T17:57:03;100384.19;;;16.12;36.22
36304;BME280;22335;49.800;8.596;2023-04-25T18:03:50;100398.34;;;16.20;35.99
36304;BME280;22335;49.800;8.596;2023-04-25T18:10:33;100408.06;;;16.26;36.59
36304;BME280;22335;49.800;8.596;2023-04-25T18:17:17;100424.81;;;16.29;36.57
36304;BME280;22335;49.800;8.596;2023-04-25T18:24:06;100393.28;;;16.13;36.58
36304;BME280;22335;49.800;8.596;2023-04-25T18:30:49;100442.97;;;16.30;36.50
36304;BME280;22335;49.800;8.596;2023-04-25T18:37:33;100457.72;;;16.26;36.49
36304;BME280;22335;49.800;8.596;2023-04-25T18:44:19;100451.41;;;16.08;36.40
36304;BME280;22335;49.800;8.596;2023-04-25T18:51:02;100469.25;;;16.19;37.12
36304;BME280;22335;49.800;8.596;2023-04-25T18:57:46;100479.16;;;16.11;37.12
36304;BME280;22335;49.800;8.596;2023-04-25T19:04:31;100470.22;;;16.06;37.11
36304;BME280;22335;49.800;8.596;2023-04-25T19:11:14;100463.00;;;15.87;36.99
36304;BME280;22335;49.800;8.596;2023-04-25T19:18:00;100488.03;;;16.00;36.85
36304;BME280;22335;49.800;8.596;2023-04-25T19:24:46;100490.72;;;15.82;37.22
36304;BME280;22335;49.800;8.596;2023-04-25T19:31:34;100498.50;;;15.72;37.02
36304;BME280;22335;49.800;8.596;2023-04-25T19:38:18;100507.66;;;15.58;37.49
36304;BME280;22335;49.800;8.596;2023-04-25T19:45:04;100502.91;;;15.50;38.54
36304;BME280;22335;49.800;8.596;2023-04-25T19:51:48;100515.06;;;15.49;38.50
36304;BME280;22335;49.800;8.596;2023-04-25T19:58:31;100533.69;;;15.43;38.36
36304;BME280;22335;49.800;8.596;2023-04-25T20:05:16;100454.13;;;14.97;38.68
36304;BME280;22335;49.800;8.596;2023-04-25T20:11:59;100541.13;;;15.43;38.46
36304;BME280;22335;49.800;8.596;2023-04-25T20:18:44;100498.13;;;15.11;38.71
36304;BME280;22335;49.800;8.596;2023-04-25T20:25:30;100532.72;;;15.48;38.02
36304;BME280;22335;49.800;8.596;2023-04-25T20:32:13;100547.50;;;15.52;38.03
36304;BME280;22335;49.800;8.596;2023-04-25T20:38:57;100545.25;;;15.54;38.40
36304;BME280;22335;49.800;8.596;2023-04-25T20:45:41;100543.63;;;15.53;39.16
36304;BME280;22335;49.800;8.596;2023-04-25T20:52:25;100557.22;;;15.50;38.73
36304;BME280;22335;49.800;8.596;2023-04-25T20:59:09;100528.19;;;15.21;39.40
36304;BME280;22335;49.800;8.596;2023-04-25T21:05:54;100562.63;;;15.32;39.63
36304;BME280;22335;49.800;8.596;2023-04-25T21:12:38;100574.41;;;15.24;40.14
36304;BME280;22335;49.800;8.596;2023-04-25T21:19:21;100518.09;;;14.94;39.54
36304;BME280;22335;49.800;8.596;2023-04-25T21:26:06;100566.78;;;15.21;39.79
36304;BME280;22335;49.800;8.596;2023-04-25T21:32:50;100571.03;;;15.27;39.82
36304;BME280;22335;49.800;8.596;2023-04-25T21:39:34;100580.91;;;15.28;39.79
36304;BME280;22335;49.800;8.596;2023-04-25T21:46:19;100571.44;;;15.20;40.40
36304;BME280;22335;49.800;8.596;2023-04-25T21:53:05;100588.84;;;15.07;40.51
36304;BME280;22335;49.800;8.596;2023-04-25T21:59:51;100586.00;;;14.98;40.69
36304;BME280;22335;49.800;8.596;2023-04-25T22:06:36;100594.75;;;14.78;41.43
36304;BME280;22335;49.800;8.596;2023-04-25T22:13:19;100573.38;;;14.47;41.55
36304;BME280;22335;49.800;8.596;2023-04-25T22:20:03;100603.78;;;14.56;41.54
36304;BME280;22335;49.800;8.596;2023-04-25T22:26:52;100611.09;;;14.47;41.77
36304;BME280;22335;49.800;8.596;2023-04-25T22:33:35;100614.75;;;14.42;41.29
36304;BME280;22335;49.800;8.596;2023-04-25T22:40:19;100627.19;;;14.40;41.67
36304;BME280;22335;49.800;8.596;2023-04-25T22:47:04;100633.22;;;14.28;41.99
36304;BME280;22335;49.800;8.596;2023-04-25T22:53:47;100642.56;;;14.27;41.85
36304;BME280;22335;49.800;8.596;2023-04-25T23:00:32;100644.41;;;14.18;42.29
36304;BME280;22335;49.800;8.596;2023-04-25T23:07:17;100628.28;;;13.97;42.12
36304;BME280;22335;49.800;8.596;2023-04-25T23:14:00;100648.56;;;14.15;41.71
36304;BME280;22335;49.800;8.596;2023-04-25T23:20:44;100630.31;;;13.92;42.06
36304;BME280;22335;49.800;8.596;2023-04-25T23:27:29;100616.41;;;13.69;41.60
36304;BME280;22335;49.800;8.596;2023-04-25T23:34:12;100660.00;;;13.76;41.88
36304;BME280;22335;49.800;8.596;2023-04-25T23:40:56;100642.41;;;13.44;42.55
36304;BME280;22335;49.800;8.596;2023-04-25T23:47:41;100656.63;;;13.46;42.59
36304;BME280;22335;49.800;8.596;2023-04-25T23:54:24;100669.94;;;13.39;42.49
